MUVR/VRA METAR and TAF weather

Enter ICAO airport designator
Station Type Date Time Source
MUVR METAR 2020/01/23 14:50 UTC NOAA

MUVR 231450Z VRB03KT 9000 FEW030 22/15 Q1017


Station Type Date Time Source
MUVR Decoded METAR 2020/01/23 14:50 UTC NOAA

Varadero, Matanzas, Cuba (MUVR) 23-08N 081-17W 3M
Jan 23, 2020 - 09:50 AM EST / 2020.01.23 1450 UTC
Wind: Variable at 3 MPH (3 KT):0
Visibility: 5 mile(s):0
Sky conditions: mostly clear
Temperature: 71 F (22 C)
Dew Point: 59 F (15 C)
Relative Humidity: 64%
Pressure (altimeter): 30.03 in. Hg (1017 hPa)
ob: MUVR 231450Z VRB03KT 9000 FEW030 22/15 Q1017
cycle: 15

Station Type Date Time Source
MUVR TAF 2020/01/23 12:03 UTC NOAA

TAF MUVR 231100Z 2312/2412 VRB03KT 9000 FEW030
BECMG 2315/2317 02012KT SCT020
BECMG 2401/2403 VRB03KT FEW020

Example: see airport list